Allerton, Illinois
Current Conditions -  °F | °C
As of 8:53 AM on Thursday 30 Oct 2014 (Local Time) from KCMI Reporting Station
Clear Clear  
Wind Chill: 38°   Ceiling: Unl
Heat Index: 42°   Visibility: 10mi
Dew Point: 37°   Wind: 7mph
Humidity: 82%   Direction: 190°S
Pressure: 30.16"   Gusts: NA
Location:  39.91°N, 87.94°W
Report Text: KCMI 301353Z 19006KT 10SM CLR 06/03 A3016 RMK AO2 SLP219 T00560028
Loading
Personal Weather Stations






























Interactive Weather Map
Tropical Storm Tracking
New forecast layout! Learn more

10-Day Weather Forecast

Advertisements
Track Severe Weather on mobile